createdAt,value
2019-02-09T00:01:54.504Z,9.23
2019-02-09T00:04:21.154Z,5.47
2019-02-09T00:06:47.540Z,7.37
2019-02-09T00:09:14.158Z,6.43
2019-02-09T00:11:40.769Z,6.23
2019-02-09T00:14:07.520Z,8.33
2019-02-09T00:16:34.164Z,6.17
2019-02-09T00:19:00.583Z,4.73
2019-02-09T00:21:27.071Z,6.73
2019-02-09T00:23:53.691Z,8.87
2019-02-09T00:26:20.120Z,7.13
2019-02-09T00:28:46.746Z,7.00
2019-02-09T00:31:13.094Z,9.23
2019-02-09T00:33:39.693Z,5.67
2019-02-09T00:36:06.211Z,3.93
2019-02-09T00:38:32.505Z,6.70
2019-02-09T00:40:59.148Z,8.27
2019-02-09T00:43:25.780Z,6.70
2019-02-09T00:45:52.418Z,8.93
2019-02-09T00:48:18.704Z,7.07
2019-02-09T00:50:45.175Z,10.27
2019-02-09T00:53:11.754Z,8.83
2019-02-09T00:55:38.394Z,5.50
2019-02-09T00:58:05.010Z,8.47
2019-02-09T01:00:31.875Z,5.97
2019-02-09T01:02:59.196Z,8.63
2019-02-09T01:05:41.772Z,5.27
2019-02-09T01:08:08.565Z,4.10
2019-02-09T01:10:35.285Z,5.20
2019-02-09T01:13:01.774Z,4.63
2019-02-09T01:15:28.461Z,5.90
2019-02-09T01:17:55.090Z,5.37
2019-02-09T01:20:24.589Z,5.60
2019-02-09T01:22:53.520Z,7.40
2019-02-09T01:25:20.326Z,9.10
2019-02-09T01:27:46.682Z,8.27
2019-02-09T01:30:20.144Z,9.87
2019-02-09T01:32:47.026Z,6.70
2019-02-09T01:35:14.708Z,6.37
2019-02-09T01:37:41.846Z,5.83
2019-02-09T01:40:13.241Z,5.37
2019-02-09T01:42:40.063Z,4.93
2019-02-09T01:45:12.053Z,9.67
2019-02-09T01:47:38.606Z,4.93
2019-02-09T01:50:10.290Z,5.80
2019-02-09T01:52:36.821Z,5.33
2019-02-09T01:55:06.336Z,5.97
2019-02-09T01:57:32.979Z,6.23
2019-02-09T01:59:59.485Z,7.30
2019-02-09T02:02:26.022Z,4.87
2019-02-09T02:04:52.609Z,5.03
2019-02-09T02:07:19.345Z,5.13
2019-02-09T02:09:45.816Z,3.63
2019-02-09T02:12:12.815Z,3.73
2019-02-09T02:14:39.300Z,3.33
2019-02-09T02:17:06.452Z,2.97
2019-02-09T02:19:33.030Z,2.97
2019-02-09T02:21:59.523Z,3.60
2019-02-09T02:24:25.928Z,5.37
2019-02-09T02:26:52.403Z,3.57
2019-02-09T02:29:19.022Z,4.13
2019-02-09T02:31:45.512Z,4.33
2019-02-09T02:34:11.912Z,5.07
2019-02-09T02:36:38.524Z,4.13
2019-02-09T02:39:08.290Z,2.33
2019-02-09T02:41:34.885Z,3.33
2019-02-09T02:44:01.515Z,3.40
2019-02-09T02:46:27.898Z,3.33
2019-02-09T02:48:54.203Z,5.33
2019-02-09T02:51:20.607Z,3.87
2019-02-09T02:53:46.949Z,2.80
2019-02-09T02:56:13.334Z,6.00
2019-02-09T02:58:39.674Z,2.67
2019-02-09T03:01:06.261Z,4.13
2019-02-09T03:03:32.555Z,3.00
2019-02-09T03:05:58.978Z,2.90
2019-02-09T03:08:25.467Z,5.70
2019-02-09T03:10:52.115Z,3.87
2019-02-09T03:13:18.700Z,2.20
2019-02-09T03:15:45.307Z,3.70
2019-02-09T03:18:11.902Z,3.23
2019-02-09T03:20:38.396Z,2.50
2019-02-09T03:23:05.002Z,4.90
2019-02-09T03:25:33.700Z,3.37
2019-02-09T03:28:00.306Z,2.63
2019-02-09T03:30:26.910Z,3.07
2019-02-09T03:32:53.587Z,4.10
2019-02-09T03:35:20.693Z,4.23
2019-02-09T03:37:47.182Z,3.80
2019-02-09T03:40:20.080Z,5.50
2019-02-09T03:42:46.791Z,4.20
2019-02-09T03:45:21.195Z,5.00
2019-02-09T03:47:48.982Z,3.63
2019-02-09T03:50:19.681Z,3.70
2019-02-09T03:52:46.356Z,3.40
2019-02-09T03:55:13.449Z,2.87
2019-02-09T03:57:40.040Z,3.30
2019-02-09T04:00:19.828Z,4.40
2019-02-09T04:02:46.717Z,4.37
2019-02-09T04:05:13.198Z,2.57
2019-02-09T04:07:39.931Z,6.93
2019-02-09T04:10:14.160Z,4.33
2019-02-09T04:12:40.762Z,5.90
2019-02-09T04:15:17.106Z,6.50
2019-02-09T04:17:43.607Z,6.17
2019-02-09T04:20:13.619Z,4.37
2019-02-09T04:22:40.134Z,12.00
2019-02-09T04:25:10.929Z,4.20
2019-02-09T04:27:37.316Z,4.47
2019-02-09T04:30:10.506Z,5.80
2019-02-09T04:32:37.039Z,6.83
2019-02-09T04:35:06.014Z,6.57
2019-02-09T04:37:32.531Z,8.23
2019-02-09T04:39:59.075Z,10.80
2019-02-09T04:42:25.470Z,11.47
2019-02-09T04:44:52.081Z,5.90
2019-02-09T04:47:18.374Z,7.17
2019-02-09T04:49:44.766Z,11.67
2019-02-09T04:52:11.176Z,6.77
2019-02-09T04:54:37.665Z,8.00
2019-02-09T04:57:04.176Z,5.20
2019-02-09T04:59:30.927Z,6.60
2019-02-09T05:01:57.495Z,10.67
2019-02-09T05:04:24.342Z,9.80
2019-02-09T05:06:51.046Z,5.63
2019-02-09T05:09:17.562Z,7.17
2019-02-09T05:11:43.877Z,12.00
2019-02-09T05:14:10.278Z,9.80
2019-02-09T05:16:36.764Z,6.13
2019-02-09T05:19:03.520Z,9.13
2019-02-09T05:21:30.158Z,5.87
2019-02-09T05:23:56.629Z,8.60
2019-02-09T05:26:23.060Z,9.07
2019-02-09T05:28:49.427Z,5.33
2019-02-09T05:31:22.988Z,10.00
2019-02-09T05:33:44.226Z,8.87
2019-02-09T05:36:10.811Z,6.47
2019-02-09T05:38:37.279Z,10.40
2019-02-09T05:41:03.933Z,8.83
2019-02-09T05:43:30.419Z,8.63
2019-02-09T05:45:56.723Z,11.23
2019-02-09T05:48:23.022Z,7.93
2019-02-09T05:50:49.445Z,10.40
2019-02-09T05:53:15.760Z,8.47
2019-02-09T05:55:42.379Z,7.43
2019-02-09T05:58:08.691Z,5.77
2019-02-09T06:00:37.255Z,8.40
2019-02-09T06:03:03.872Z,9.13
2019-02-09T06:05:30.479Z,10.30
2019-02-09T06:07:57.173Z,9.60
2019-02-09T06:10:23.657Z,12.37
2019-02-09T06:12:50.081Z,8.17
2019-02-09T06:15:22.291Z,9.33
2019-02-09T06:17:48.920Z,10.80
2019-02-09T06:20:19.210Z,9.60
2019-02-09T06:22:45.942Z,11.10
2019-02-09T06:25:12.722Z,12.67
2019-02-09T06:27:39.249Z,9.07
2019-02-09T06:30:19.809Z,10.27
2019-02-09T06:32:46.427Z,8.00
2019-02-09T06:35:13.005Z,9.17
2019-02-09T06:37:39.445Z,6.43
2019-02-09T06:40:11.456Z,4.23
2019-02-09T06:42:37.778Z,10.40
2019-02-09T06:45:14.720Z,11.27
2019-02-09T06:47:41.383Z,7.13
2019-02-09T06:50:18.440Z,7.53
2019-02-09T06:52:44.909Z,8.47
2019-02-09T06:55:14.691Z,7.43
2019-02-09T06:57:41.207Z,10.13
2019-02-09T07:00:15.568Z,8.50
2019-02-09T07:02:42.187Z,9.97
2019-02-09T07:05:15.092Z,8.60
2019-02-09T07:07:41.757Z,9.93
2019-02-09T07:10:13.562Z,10.10
2019-02-09T07:12:40.208Z,10.63
2019-02-09T07:15:12.368Z,9.03
2019-02-09T07:17:38.919Z,8.27
2019-02-09T07:20:09.812Z,7.27
2019-02-09T07:22:36.306Z,6.87
2019-02-09T07:25:07.725Z,5.60
2019-02-09T07:27:34.417Z,7.37
2019-02-09T07:30:01.157Z,5.10
2019-02-09T07:32:27.859Z,7.63
2019-02-09T07:34:54.366Z,7.40
2019-02-09T07:37:20.779Z,6.13
2019-02-09T07:39:47.236Z,8.87
2019-02-09T07:42:13.525Z,10.80
2019-02-09T07:44:40.673Z,12.40
2019-02-09T07:47:07.189Z,8.27
2019-02-09T07:49:33.696Z,8.43
2019-02-09T07:52:00.446Z,8.97
2019-02-09T07:54:26.860Z,7.27
2019-02-09T07:56:53.417Z,10.53
2019-02-09T07:59:20.041Z,11.37
2019-02-09T08:01:46.581Z,13.27
2019-02-09T08:04:13.234Z,10.23
2019-02-09T08:06:41.278Z,7.97
2019-02-09T08:09:10.363Z,5.80
2019-02-09T08:11:37.103Z,6.57
2019-02-09T08:14:04.005Z,6.80
2019-02-09T08:16:30.623Z,9.20
2019-02-09T08:18:57.069Z,10.23
2019-02-09T08:21:23.698Z,9.37
2019-02-09T08:23:50.107Z,7.43
2019-02-09T08:26:16.674Z,7.63
2019-02-09T08:28:43.298Z,11.37
2019-02-09T08:31:09.846Z,9.30
2019-02-09T08:33:36.467Z,10.20
2019-02-09T08:36:03.567Z,11.90
2019-02-09T08:38:30.106Z,8.90
2019-02-09T08:40:56.808Z,9.03
2019-02-09T08:43:23.438Z,11.47
2019-02-09T08:45:50.058Z,9.87
2019-02-09T08:48:16.756Z,14.70
2019-02-09T08:50:57.296Z,13.40
2019-02-09T08:53:24.304Z,13.80
2019-02-09T08:55:50.926Z,12.93
2019-02-09T08:58:17.476Z,11.83
2019-02-09T09:00:44.546Z,13.47
2019-02-09T09:03:11.304Z,13.33
2019-02-09T09:05:37.948Z,15.73
2019-02-09T09:08:05.152Z,15.00
2019-02-09T09:10:31.868Z,17.43
2019-02-09T09:12:59.635Z,15.13
2019-02-09T09:15:33.736Z,12.73
2019-02-09T09:18:00.425Z,11.07
2019-02-09T09:20:52.936Z,17.63
2019-02-09T09:23:19.556Z,14.40
2019-02-09T09:25:46.218Z,11.57
2019-02-09T09:28:12.871Z,13.07
2019-02-09T09:30:39.491Z,10.80
2019-02-09T09:33:06.087Z,16.57
2019-02-09T09:35:32.745Z,15.50
2019-02-09T09:37:59.565Z,16.63
2019-02-09T09:40:34.163Z,13.27
2019-02-09T09:43:00.752Z,17.70
2019-02-09T09:45:31.629Z,15.00
2019-02-09T09:47:58.286Z,15.57
2019-02-09T09:50:27.640Z,10.23
2019-02-09T09:52:54.753Z,23.03
2019-02-09T09:55:21.375Z,13.97
2019-02-09T09:57:47.993Z,17.63
2019-02-09T10:00:20.914Z,16.80
2019-02-09T10:02:47.522Z,12.17
2019-02-09T10:05:15.157Z,18.93
2019-02-09T10:07:41.960Z,17.77
2019-02-09T10:10:13.134Z,12.07
2019-02-09T10:12:39.769Z,16.40
2019-02-09T10:15:16.831Z,14.70
2019-02-09T10:17:43.726Z,16.87
2019-02-09T10:20:17.125Z,17.57
2019-02-09T10:22:43.856Z,17.33
2019-02-09T10:25:12.709Z,14.30
2019-02-09T10:27:39.378Z,13.03
2019-02-09T10:30:17.560Z,16.30
2019-02-09T10:32:44.741Z,12.90
2019-02-09T10:35:14.431Z,17.63
2019-02-09T10:37:41.204Z,22.90
2019-02-09T10:40:15.921Z,18.93
2019-02-09T10:42:42.578Z,17.53
2019-02-09T10:45:19.425Z,19.33
2019-02-09T10:47:46.503Z,17.73
2019-02-09T10:50:23.430Z,18.23
2019-02-09T10:52:50.094Z,17.40
2019-02-09T10:55:16.851Z,18.33
2019-02-09T10:57:44.110Z,20.23
2019-02-09T11:00:16.230Z,12.73
2019-02-09T11:02:43.219Z,19.90
2019-02-09T11:05:13.165Z,17.70
2019-02-09T11:07:39.716Z,18.70
2019-02-09T11:10:11.528Z,13.87
2019-02-09T11:12:38.316Z,18.60
2019-02-09T11:15:10.241Z,17.93
2019-02-09T11:17:37.035Z,15.37
2019-02-09T11:20:17.004Z,16.17
2019-02-09T11:22:43.781Z,16.53
2019-02-09T11:25:14.391Z,16.57
2019-02-09T11:27:41.048Z,18.23
2019-02-09T11:30:15.127Z,14.07
2019-02-09T11:32:41.898Z,16.33
2019-02-09T11:35:12.258Z,17.20
2019-02-09T11:37:39.046Z,19.23
2019-02-09T11:40:10.450Z,20.83
2019-02-09T11:42:37.192Z,20.60
2019-02-09T11:45:09.323Z,18.83
2019-02-09T11:47:35.940Z,17.33
2019-02-09T11:50:07.314Z,16.17
2019-02-09T11:52:34.135Z,17.27
2019-02-09T11:55:00.678Z,14.37
2019-02-09T11:57:27.251Z,18.73
2019-02-09T11:59:53.951Z,12.07
2019-02-09T12:02:20.615Z,12.87
2019-02-09T12:04:47.258Z,13.20
2019-02-09T12:07:13.870Z,23.43
2019-02-09T12:09:40.651Z,18.53
2019-02-09T12:12:07.302Z,17.50
2019-02-09T12:14:34.015Z,16.27
2019-02-09T12:17:00.656Z,18.43
2019-02-09T12:19:27.117Z,13.77
2019-02-09T12:21:53.715Z,11.87
2019-02-09T12:24:20.263Z,11.17
2019-02-09T12:26:47.016Z,25.23
2019-02-09T12:29:13.667Z,15.87
2019-02-09T12:31:40.209Z,18.07
2019-02-09T12:34:06.867Z,16.03
2019-02-09T12:36:33.464Z,16.47
2019-02-09T12:39:00.163Z,14.93
2019-02-09T12:41:26.761Z,14.93
2019-02-09T12:43:53.262Z,25.27
2019-02-09T12:46:20.049Z,11.37
2019-02-09T12:48:46.647Z,10.53
2019-02-09T12:51:13.331Z,11.03
2019-02-09T12:53:39.997Z,13.93
2019-02-09T12:56:06.649Z,19.10
2019-02-09T12:58:33.245Z,13.43
2019-02-09T13:00:59.770Z,16.97
2019-02-09T13:03:31.205Z,11.57
2019-02-09T13:05:55.145Z,16.47
2019-02-09T13:08:21.765Z,13.73
2019-02-09T13:10:48.422Z,11.50
2019-02-09T13:13:15.151Z,20.70
2019-02-09T13:15:41.785Z,13.90
2019-02-09T13:18:08.442Z,15.47
2019-02-09T13:20:35.134Z,13.70
2019-02-09T13:23:03.817Z,16.20
2019-02-09T13:25:30.331Z,19.67
2019-02-09T13:27:57.006Z,7.50
2019-02-09T13:30:29.858Z,14.50
2019-02-09T13:32:56.581Z,16.67
2019-02-09T13:35:23.239Z,12.83
2019-02-09T13:37:50.325Z,12.40
2019-02-09T13:40:22.465Z,14.53
2019-02-09T13:42:49.171Z,15.23
2019-02-09T13:45:28.777Z,10.53
2019-02-09T13:47:55.413Z,17.90
2019-02-09T13:50:22.346Z,18.57
2019-02-09T13:52:49.162Z,13.83
2019-02-09T13:55:16.041Z,19.97
2019-02-09T13:57:42.764Z,19.53
2019-02-09T14:00:25.796Z,16.13
2019-02-09T14:02:54.481Z,14.67
2019-02-09T14:05:21.044Z,14.00
2019-02-09T14:07:48.049Z,14.27
2019-02-09T14:10:23.857Z,14.97
2019-02-09T14:12:50.779Z,13.90
2019-02-09T14:15:27.729Z,20.43
2019-02-09T14:17:55.357Z,15.03
2019-02-09T14:20:22.249Z,15.37
2019-02-09T14:22:48.970Z,14.23
2019-02-09T14:25:18.030Z,13.77
2019-02-09T14:27:45.504Z,9.80
2019-02-09T14:30:23.198Z,15.83
2019-02-09T14:32:50.289Z,16.23
2019-02-09T14:35:17.126Z,12.30
2019-02-09T14:37:44.093Z,10.97
2019-02-09T14:40:15.493Z,13.63
2019-02-09T14:42:42.161Z,12.47
2019-02-09T14:45:19.750Z,12.43
2019-02-09T14:47:46.347Z,12.27
2019-02-09T14:50:15.623Z,11.47
2019-02-09T14:52:42.339Z,8.33
2019-02-09T14:55:19.677Z,6.47
2019-02-09T14:57:46.439Z,6.30
2019-02-09T15:00:30.084Z,7.83
2019-02-09T15:02:56.773Z,6.03
2019-02-09T15:05:23.987Z,8.07
2019-02-09T15:07:50.851Z,5.80
2019-02-09T15:10:19.684Z,6.77
2019-02-09T15:12:46.583Z,7.77
2019-02-09T15:15:18.306Z,6.50
2019-02-09T15:17:45.108Z,8.93
2019-02-09T15:20:19.176Z,7.30
2019-02-09T15:22:46.035Z,7.30
2019-02-09T15:25:13.736Z,5.90
2019-02-09T15:27:40.431Z,7.60
2019-02-09T15:30:21.169Z,9.07
2019-02-09T15:32:48.047Z,8.57
2019-02-09T15:35:15.727Z,9.57
2019-02-09T15:37:42.502Z,11.20
2019-02-09T15:40:14.196Z,6.90
2019-02-09T15:42:40.884Z,12.07
2019-02-09T15:45:14.613Z,10.50
2019-02-09T15:47:41.366Z,10.97
2019-02-09T15:50:11.983Z,12.90
2019-02-09T15:52:38.955Z,10.53
2019-02-09T15:55:17.083Z,10.93
2019-02-09T15:57:44.123Z,10.33
2019-02-09T16:00:21.517Z,14.03
2019-02-09T16:02:55.816Z,19.67
2019-02-09T16:05:22.643Z,13.07
2019-02-09T16:07:49.353Z,12.37
2019-02-09T16:10:19.884Z,11.47
2019-02-09T16:12:46.652Z,15.50
2019-02-09T16:15:30.204Z,12.03
2019-02-09T16:17:56.966Z,13.50
2019-02-09T16:20:33.763Z,10.93
2019-02-09T16:23:00.457Z,12.80
2019-02-09T16:25:27.734Z,12.67
2019-02-09T16:27:54.416Z,20.53
2019-02-09T16:30:24.417Z,12.70
2019-02-09T16:32:51.236Z,11.40
2019-02-09T16:35:20.749Z,15.83
2019-02-09T16:37:48.037Z,15.00
2019-02-09T16:40:25.093Z,12.27
2019-02-09T16:42:51.997Z,12.80
2019-02-09T16:45:22.523Z,18.97
2019-02-09T16:47:49.300Z,10.53
2019-02-09T16:50:19.341Z,13.67
2019-02-09T16:52:46.125Z,14.27
2019-02-09T16:55:19.646Z,11.53
2019-02-09T16:57:47.430Z,13.57
2019-02-09T17:00:30.782Z,15.33
2019-02-09T17:02:58.011Z,11.70
2019-02-09T17:05:24.966Z,12.23
2019-02-09T17:07:52.518Z,14.47
2019-02-09T17:10:20.005Z,17.97
2019-02-09T17:12:46.665Z,17.37
2019-02-09T17:15:21.048Z,13.10
2019-02-09T17:17:47.984Z,20.60
2019-02-09T17:20:15.427Z,13.90
2019-02-09T17:22:42.078Z,13.23
2019-02-09T17:25:15.557Z,12.97
2019-02-09T17:27:42.497Z,18.60
2019-02-09T17:30:14.666Z,15.83
2019-02-09T17:32:41.641Z,10.73
2019-02-09T17:35:10.271Z,13.13
2019-02-09T17:37:36.931Z,9.67
2019-02-09T17:40:14.126Z,7.27
2019-02-09T17:42:40.969Z,10.10
2019-02-09T17:45:21.341Z,11.27
2019-02-09T17:47:48.023Z,12.33
2019-02-09T17:50:15.089Z,10.10
2019-02-09T17:52:41.889Z,14.33
2019-02-09T17:55:16.696Z,10.77
2019-02-09T17:57:43.331Z,13.77
2019-02-09T18:00:39.707Z,9.60
2019-02-09T18:03:06.384Z,11.97
2019-02-09T18:05:34.705Z,11.60
2019-02-09T18:08:01.555Z,15.20
2019-02-09T18:10:28.172Z,11.53
2019-02-09T18:12:54.793Z,11.93
2019-02-09T18:15:21.456Z,12.07
2019-02-09T18:17:48.001Z,12.50
2019-02-09T18:20:18.042Z,13.93
2019-02-09T18:22:44.742Z,13.60
2019-02-09T18:25:15.367Z,16.70
2019-02-09T18:27:41.981Z,14.33
2019-02-09T18:30:14.098Z,11.03
2019-02-09T18:32:41.088Z,12.67
2019-02-09T18:35:08.978Z,11.63
2019-02-09T18:37:37.009Z,11.03
2019-02-09T18:40:17.724Z,13.23
2019-02-09T18:42:44.489Z,11.73
2019-02-09T18:45:16.276Z,12.80
2019-02-09T18:47:42.907Z,13.20
2019-02-09T18:50:14.074Z,9.53
2019-02-09T18:52:40.669Z,13.60
2019-02-09T18:55:15.617Z,15.13
2019-02-09T18:57:43.960Z,15.17
2019-02-09T19:00:15.910Z,15.27
2019-02-09T19:02:42.789Z,15.70
2019-02-09T19:05:12.543Z,14.77
2019-02-09T19:07:39.284Z,15.77
2019-02-09T19:10:19.654Z,15.40
2019-02-09T19:12:47.177Z,14.27
2019-02-09T19:15:17.502Z,13.27
2019-02-09T19:17:45.990Z,14.80
2019-02-09T19:20:21.009Z,18.00
2019-02-09T19:22:47.778Z,10.83
2019-02-09T19:25:20.514Z,15.47
2019-02-09T19:27:47.278Z,12.43
2019-02-09T19:30:20.020Z,17.23
2019-02-09T19:32:47.024Z,11.33
2019-02-09T19:35:14.596Z,10.70
2019-02-09T19:37:41.643Z,12.47
2019-02-09T19:40:21.415Z,11.07
2019-02-09T19:42:49.165Z,15.47
2019-02-09T19:45:23.256Z,12.33
2019-02-09T19:47:50.328Z,8.23
2019-02-09T19:50:17.464Z,16.57
2019-02-09T19:52:44.502Z,15.83
2019-02-09T19:55:15.486Z,12.70
2019-02-09T19:57:42.549Z,14.40
2019-02-09T20:00:20.506Z,14.03
2019-02-09T20:02:47.341Z,12.83
2019-02-09T20:05:19.719Z,14.53
2019-02-09T20:07:42.752Z,12.60
2019-02-09T20:10:18.042Z,13.40
2019-02-09T20:12:45.116Z,13.40
2019-02-09T20:15:13.637Z,12.00
2019-02-09T20:17:40.457Z,13.40
2019-02-09T20:20:14.983Z,13.87
2019-02-09T20:22:41.663Z,13.83
2019-02-09T20:25:15.458Z,15.73
2019-02-09T20:27:42.425Z,15.70
2019-02-09T20:30:17.437Z,11.63
2019-02-09T20:32:44.053Z,14.57
2019-02-09T20:35:14.692Z,14.10
2019-02-09T20:37:41.769Z,12.77
2019-02-09T20:40:25.742Z,13.67
2019-02-09T20:42:52.561Z,12.00
2019-02-09T20:45:19.540Z,17.63
2019-02-09T20:47:48.687Z,12.97
2019-02-09T20:50:22.483Z,15.67
2019-02-09T20:52:50.316Z,17.47
2019-02-09T20:55:18.843Z,10.30
2019-02-09T20:57:45.559Z,13.30
2019-02-09T21:00:20.532Z,14.43
2019-02-09T21:02:47.224Z,16.23
2019-02-09T21:05:14.816Z,11.67
2019-02-09T21:07:44.774Z,17.23
2019-02-09T21:10:22.249Z,14.33
2019-02-09T21:12:48.898Z,13.40
2019-02-09T21:15:19.637Z,13.67
2019-02-09T21:17:46.307Z,16.50
2019-02-09T21:20:14.250Z,18.30
2019-02-09T21:22:40.897Z,20.23
2019-02-09T21:25:18.558Z,16.47
2019-02-09T21:27:45.280Z,18.10
2019-02-09T21:30:16.739Z,19.37
2019-02-09T21:32:43.407Z,13.77
2019-02-09T21:35:13.054Z,14.00
2019-02-09T21:37:39.702Z,12.73
2019-02-09T21:40:17.804Z,14.60
2019-02-09T21:42:44.793Z,19.10
2019-02-09T21:45:17.676Z,14.30
2019-02-09T21:47:45.142Z,15.30
2019-02-09T21:50:18.917Z,18.83
2019-02-09T21:52:45.471Z,15.93
2019-02-09T21:55:16.504Z,14.47
2019-02-09T21:57:43.206Z,15.50
2019-02-09T22:00:30.577Z,16.97
2019-02-09T22:02:57.602Z,17.17
2019-02-09T22:05:24.398Z,18.57
2019-02-09T22:07:51.168Z,12.23
2019-02-09T22:10:29.049Z,16.13
2019-02-09T22:12:50.475Z,13.23
2019-02-09T22:15:20.594Z,16.73
2019-02-09T22:17:47.348Z,18.07
2019-02-09T22:20:16.933Z,15.30
2019-02-09T22:22:43.591Z,14.23
2019-02-09T22:25:14.468Z,12.43
2019-02-09T22:27:41.827Z,15.80
2019-02-09T22:30:23.601Z,18.67
2019-02-09T22:32:50.409Z,14.20
2019-02-09T22:35:17.536Z,17.13
2019-02-09T22:37:44.313Z,14.73
2019-02-09T22:40:28.139Z,10.43
2019-02-09T22:42:54.794Z,17.80
2019-02-09T22:45:23.563Z,23.50
2019-02-09T22:47:51.911Z,14.43
2019-02-09T22:50:26.197Z,15.13
2019-02-09T22:52:53.533Z,14.97
2019-02-09T22:55:21.726Z,17.03
2019-02-09T22:57:48.707Z,11.50
2019-02-09T23:00:33.694Z,19.73
2019-02-09T23:03:00.433Z,17.97
2019-02-09T23:05:50.792Z,17.00
2019-02-09T23:08:17.575Z,17.60
2019-02-09T23:10:44.367Z,18.20
2019-02-09T23:13:11.046Z,20.10
2019-02-09T23:15:37.601Z,19.73
2019-02-09T23:18:04.385Z,23.43
2019-02-09T23:20:30.911Z,15.47
2019-02-09T23:22:57.613Z,19.93
2019-02-09T23:25:24.298Z,16.50
2019-02-09T23:27:50.727Z,15.10
2019-02-09T23:30:17.363Z,20.40
2019-02-09T23:32:46.066Z,17.43
2019-02-09T23:35:12.582Z,16.60
2019-02-09T23:37:39.329Z,20.63
2019-02-09T23:40:06.853Z,21.53
2019-02-09T23:42:33.366Z,17.30
2019-02-09T23:45:00.281Z,17.77
2019-02-09T23:47:27.138Z,20.00
2019-02-09T23:49:54.545Z,18.60
2019-02-09T23:52:21.166Z,16.53
2019-02-09T23:54:48.042Z,17.27
2019-02-09T23:57:14.632Z,21.23
2019-02-09T23:59:41.026Z,16.73
